Time;durP1;ratioP1;P1;durP2;ratioP2;P2;SDS_P1;SDS_P2;PMS_P1;PMS_P2;Temp;Humidity;BMP_temperature;BMP_pressure;BME280_temperature;BME280_humidity;BME280_pressure;Samples;Min_cycle;Max_cycle;Signal;HPM_P1;HPM_P2
2022/09/21 00:00:11;;;;;;;5.50;2.20;;;;;;;6.53;100.00;99442.66;4964444;28;20741;-55
2022/09/21 00:02:38;;;;;;;3.93;1.90;;;;;;;6.45;100.00;99451.78;4967466;28;20369;-54
2022/09/21 00:05:05;;;;;;;5.17;2.30;;;;;;;6.41;100.00;99442.56;4963540;28;20225;-55
2022/09/21 00:07:33;;;;;;;4.00;2.50;;;;;;;6.38;100.00;99442.75;4971587;28;20242;-54
2022/09/21 00:09:59;;;;;;;7.00;2.50;;;;;;;6.38;100.00;99445.34;4971000;28;20257;-58
2022/09/21 00:12:30;;;;;;;3.63;2.03;;;;;;;6.33;100.00;99442.25;4968206;28;20325;-52
2022/09/21 00:15:17;;;;;;;9.77;2.20;;;;;;;6.24;100.00;99437.66;4966002;28;20276;-53
2022/09/21 00:17:45;;;;;;;7.20;2.47;;;;;;;6.22;100.00;99447.31;4968212;28;20233;-54
2022/09/21 00:20:12;;;;;;;6.73;2.50;;;;;;;6.19;100.00;99440.56;4967595;28;20237;-56
2022/09/21 00:22:40;;;;;;;9.17;2.70;;;;;;;6.16;100.00;99444.19;4969145;28;20225;-55
2022/09/21 00:25:08;;;;;;;4.07;2.40;;;;;;;6.17;100.00;99445.84;4964805;28;20327;-53
2022/09/21 00:27:35;;;;;;;7.60;2.53;;;;;;;6.14;100.00;99450.44;4966956;28;20237;-55
2022/09/21 00:30:02;;;;;;;6.27;2.30;;;;;;;6.09;100.00;99447.31;4967038;28;20320;-55
2022/09/21 00:32:30;;;;;;;4.97;2.70;;;;;;;6.02;100.00;99441.69;4968714;28;20238;-55
2022/09/21 00:34:57;;;;;;;6.20;2.57;;;;;;;5.98;100.00;99443.63;4963773;28;20233;-53
2022/09/21 00:37:24;;;;;;;5.47;2.60;;;;;;;6.08;100.00;99441.28;4968070;28;20268;-55
2022/09/21 00:39:53;;;;;;;5.97;2.60;;;;;;;5.97;100.00;99441.13;4962946;28;20284;-54
2022/09/21 00:42:21;;;;;;;8.17;2.40;;;;;;;5.90;100.00;99444.13;4970133;28;20237;-54
2022/09/21 00:44:48;;;;;;;5.43;2.70;;;;;;;5.93;100.00;99442.25;4965391;28;20242;-55
2022/09/21 00:47:17;;;;;;;7.40;2.90;;;;;;;5.94;100.00;99433.56;4968949;28;20464;-54
2022/09/21 00:49:49;;;;;;;4.87;2.60;;;;;;;5.95;100.00;99437.81;4967544;28;20724;-54
2022/09/21 00:52:18;;;;;;;6.93;2.43;;;;;;;5.88;100.00;99440.78;4969486;28;20229;-53
2022/09/21 00:54:49;;;;;;;7.73;3.00;;;;;;;5.86;100.00;99434.88;4967334;28;20242;-54
2022/09/21 00:57:20;;;;;;;4.97;3.10;;;;;;;5.86;100.00;99437.47;4964952;28;20239;-56
2022/09/21 00:59:50;;;;;;;8.17;3.30;;;;;;;5.81;100.00;99438.72;4964862;28;20233;-55
2022/09/21 01:02:17;;;;;;;6.33;2.73;;;;;;;5.82;100.00;99443.81;4965143;28;20313;-57
2022/09/21 01:04:45;;;;;;;8.00;2.73;;;;;;;5.82;100.00;99433.44;4965401;28;20714;-54
2022/09/21 01:07:17;;;;;;;4.90;2.83;;;;;;;5.80;100.00;99437.91;4966993;28;20717;-55
2022/09/21 01:09:46;;;;;;;5.90;2.70;;;;;;;5.73;100.00;99436.63;4966845;28;20238;-55
2022/09/21 01:12:35;;;;;;;5.50;2.77;;;;;;;5.78;100.00;99433.75;4967025;28;20347;-53
2022/09/21 01:15:16;;;;;;;5.27;3.20;;;;;;;5.71;100.00;99434.13;4965532;28;20247;-55
2022/09/21 01:17:51;;;;;;;6.90;2.87;;;;;;;5.72;100.00;99435.78;4965550;28;20649;-55
2022/09/21 01:20:49;;;;;;;5.03;2.40;;;;;;;5.67;100.00;99434.44;4964559;28;20233;-53
2022/09/21 01:23:39;;;;;;;8.87;2.93;;;;;;;5.78;100.00;99433.75;4962775;28;20638;-55
2022/09/21 01:26:16;;;;;;;8.90;3.20;;;;;;;5.66;100.00;99436.19;4962495;28;21126;-55
2022/09/21 01:29:11;;;;;;;8.47;2.80;;;;;;;5.58;100.00;99434.09;4964418;28;20237;-55
2022/09/21 01:31:41;;;;;;;10.67;2.80;;;;;;;5.63;100.00;99428.63;4960507;28;20238;-55
2022/09/21 01:34:15;;;;;;;10.57;3.10;;;;;;;5.57;100.00;99435.03;4964486;28;20244;-56
2022/09/21 01:36:46;;;;;;;5.83;3.13;;;;;;;5.65;100.00;99431.94;4967319;28;20233;-55
2022/09/21 01:39:14;;;;;;;6.93;2.90;;;;;;;5.66;100.00;99433.59;4961134;28;20320;-55
2022/09/21 01:41:44;;;;;;;4.90;2.63;;;;;;;5.68;100.00;99436.91;4962771;28;20734;-52
2022/09/21 01:44:17;;;;;;;6.63;2.60;;;;;;;5.65;100.00;99439.72;4960794;28;20441;-53
2022/09/21 01:46:46;;;;;;;6.63;3.23;;;;;;;5.58;100.00;99438.44;4970194;28;20313;-54
2022/09/21 01:49:17;;;;;;;9.43;3.13;;;;;;;5.60;100.00;99432.25;4969090;28;20245;-52
2022/09/21 01:51:48;;;;;;;7.67;3.20;;;;;;;5.65;100.00;99438.91;4965208;28;20302;-55
2022/09/21 01:54:20;;;;;;;5.63;3.17;;;;;;;5.62;100.00;99437.31;4965478;28;20690;-54
2022/09/21 01:56:51;;;;;;;6.90;3.40;;;;;;;5.58;100.00;99435.84;4966750;28;20276;-55
2022/09/21 01:59:25;;;;;;;5.83;2.60;;;;;;;5.60;100.00;99441.75;4969333;28;20245;-54
2022/09/21 02:01:56;;;;;;;4.47;2.70;;;;;;;5.66;100.00;99435.38;4965550;28;20327;-52
2022/09/21 02:04:23;;;;;;;9.73;3.03;;;;;;;5.64;100.00;99439.81;4967001;28;20312;-54
2022/09/21 02:06:50;;;;;;;6.83;2.50;;;;;;;5.59;100.00;99429.75;4964844;28;20261;-54
2022/09/21 02:09:18;;;;;;;9.50;2.97;;;;;;;5.51;100.00;99426.81;4970685;28;20272;-52
2022/09/21 02:11:45;;;;;;;6.13;2.80;;;;;;;5.43;100.00;99428.13;4971545;28;20230;-52
2022/09/21 02:14:13;;;;;;;5.43;2.87;;;;;;;5.45;100.00;99426.28;4970997;28;20278;-55
2022/09/21 02:16:47;;;;;;;7.30;2.97;;;;;;;5.50;100.00;99423.41;4972578;28;20238;-55
2022/09/21 02:19:22;;;;;;;11.60;3.07;;;;;;;5.41;100.00;99427.41;4965921;28;20236;-55
2022/09/21 02:21:59;;;;;;;4.17;2.93;;;;;;;5.50;100.00;99426.00;4965877;28;20319;-54
2022/09/21 02:24:35;;;;;;;4.87;2.40;;;;;;;5.36;100.00;99421.69;4970206;28;20770;-54
2022/09/21 02:27:05;;;;;;;7.80;3.23;;;;;;;5.34;100.00;99417.53;4974387;28;20251;-55
2022/09/21 02:29:42;;;;;;;5.30;2.70;;;;;;;5.36;100.00;99420.88;4970265;28;20233;-55
2022/09/21 02:32:17;;;;;;;7.77;2.57;;;;;;;5.37;100.00;99422.53;4966131;28;20241;-55
2022/09/21 02:34:48;;;;;;;6.87;2.97;;;;;;;5.29;100.00;99416.09;4969220;28;20238;-55
2022/09/21 02:37:21;;;;;;;7.40;2.73;;;;;;;5.23;100.00;99420.81;4971928;28;20245;-54
2022/09/21 02:39:58;;;;;;;5.73;2.90;;;;;;;5.21;100.00;99423.50;4969225;28;20712;-55
2022/09/21 02:42:29;;;;;;;8.87;2.77;;;;;;;5.14;100.00;99417.03;4968973;28;21258;-56
2022/09/21 02:45:03;;;;;;;5.73;2.70;;;;;;;5.11;100.00;99412.91;4963766;28;20316;-55
2022/09/21 02:47:36;;;;;;;3.70;2.53;;;;;;;5.08;100.00;99415.69;4981208;28;20253;-57
2022/09/21 02:50:06;;;;;;;6.30;2.80;;;;;;;5.07;100.00;99415.78;4964383;28;20309;-57
2022/09/21 02:52:35;;;;;;;7.90;2.97;;;;;;;5.16;100.00;99410.88;4963599;28;20230;-57
2022/09/21 02:55:03;;;;;;;10.37;2.47;;;;;;;5.17;100.00;99417.69;4960657;28;20720;-55
2022/09/21 02:57:31;;;;;;;7.20;2.70;;;;;;;5.13;100.00;99412.78;4967228;28;20671;-54
2022/09/21 03:00:00;;;;;;;7.10;2.90;;;;;;;5.20;100.00;99413.25;4956334;28;20324;-56
2022/09/21 03:05:11;;;;;;;5.53;2.40;;;;;;;5.09;100.00;99417.34;5151866;23;20241;-55
2022/09/21 03:07:41;;;;;;;8.20;2.80;;;;;;;5.13;100.00;99413.66;4950037;28;20221;-55
2022/09/21 03:10:17;;;;;;;4.07;2.17;;;;;;;5.11;100.00;99412.06;4963789;28;20235;-55
2022/09/21 03:12:46;;;;;;;5.10;2.07;;;;;;;5.07;100.00;99415.78;4969827;28;20320;-55
2022/09/21 03:15:16;;;;;;;6.73;2.17;;;;;;;5.09;100.00;99414.75;4952031;28;20270;-55
2022/09/21 03:17:45;;;;;;;6.33;2.13;;;;;;;5.09;100.00;99411.31;4961899;28;20235;-54
2022/09/21 03:20:16;;;;;;;6.17;2.30;;;;;;;5.05;100.00;99410.69;4927385;28;20221;-56
2022/09/21 03:22:51;;;;;;;5.23;2.37;;;;;;;5.22;100.00;99411.41;4952491;28;20305;-55
2022/09/21 03:25:18;;;;;;;3.93;2.20;;;;;;;5.24;100.00;99412.94;4950441;28;20230;-55
2022/09/21 03:27:45;;;;;;;6.17;2.33;;;;;;;5.21;100.00;99412.34;4957477;28;20239;-54
2022/09/21 03:30:13;;;;;;;7.73;2.80;;;;;;;5.14;100.00;99420.47;4957088;28;20293;-55
2022/09/21 03:32:39;;;;;;;4.20;2.70;;;;;;;5.12;100.00;99419.75;4957489;28;20234;-54
2022/09/21 03:35:07;;;;;;;4.50;2.37;;;;;;;5.17;100.00;99424.63;4955406;28;20229;-55
2022/09/21 03:37:54;;;;;;;6.20;2.10;;;;;;;5.13;100.00;99431.75;4954736;28;20301;-54
2022/09/21 03:40:22;;;;;;;6.73;2.60;;;;;;;5.11;100.00;99430.19;4960599;28;20651;-53
2022/09/21 03:42:48;;;;;;;8.63;2.77;;;;;;;5.08;100.00;99431.22;4955922;28;20316;-54
2022/09/21 03:45:15;;;;;;;7.00;2.53;;;;;;;5.12;100.00;99432.69;4957907;28;20246;-53
2022/09/21 03:47:42;;;;;;;7.03;2.30;;;;;;;5.12;100.00;99430.09;4957256;28;20226;-51
2022/09/21 03:50:10;;;;;;;4.43;2.60;;;;;;;5.01;100.00;99435.91;4956338;28;20222;-53
2022/09/21 03:52:38;;;;;;;6.43;3.00;;;;;;;5.00;100.00;99429.09;4957962;28;20222;-53
2022/09/21 03:55:08;;;;;;;13.83;10.97;;;;;;;4.91;100.00;99434.81;4954614;28;20234;-54
2022/09/21 03:57:36;;;;;;;8.57;4.80;;;;;;;4.96;100.00;99427.63;4959342;28;20229;-52
2022/09/21 04:00:05;;;;;;;10.77;5.50;;;;;;;4.91;100.00;99434.81;4954589;28;20236;-51
2022/09/21 04:02:32;;;;;;;23.17;17.60;;;;;;;4.91;100.00;99434.81;4959810;28;20229;-52
2022/09/21 04:04:58;;;;;;;9.10;6.40;;;;;;;4.91;100.00;99436.59;4959180;28;20308;-51
2022/09/21 04:07:45;;;;;;;10.87;6.97;;;;;;;4.91;100.00;99424.47;4957996;28;20240;-52
2022/09/21 04:10:16;;;;;;;8.03;3.20;;;;;;;4.95;100.00;99435.50;4951296;28;20248;-51
2022/09/21 04:12:44;;;;;;;6.37;2.50;;;;;;;4.87;100.00;99430.75;4955302;28;20234;-51
2022/09/21 04:15:12;;;;;;;11.53;3.70;;;;;;;4.92;100.00;99433.09;4954631;28;20245;-51
2022/09/21 04:17:39;;;;;;;7.17;2.97;;;;;;;4.87;100.00;99431.63;4957785;28;20697;-53
2022/09/21 04:20:07;;;;;;;6.93;3.30;;;;;;;4.89;100.00;99436.69;4954550;28;20230;-54
2022/09/21 04:22:35;;;;;;;10.53;4.43;;;;;;;4.90;100.00;99433.16;4960475;28;20625;-54
2022/09/21 04:25:02;;;;;;;4.60;2.70;;;;;;;4.84;100.00;99426.63;4955909;28;20261;-51
2022/09/21 04:27:31;;;;;;;6.67;2.60;;;;;;;4.74;100.00;99435.88;4958093;28;20241;-52
2022/09/21 04:29:57;;;;;;;4.27;3.10;;;;;;;4.79;100.00;99426.06;4956006;28;20248;-53
2022/09/21 04:32:24;;;;;;;6.07;3.33;;;;;;;4.76;100.00;99428.03;4957807;28;20241;-53
2022/09/21 04:34:51;;;;;;;9.10;2.93;;;;;;;4.84;100.00;99431.81;4947225;28;21073;-54
2022/09/21 04:37:18;;;;;;;5.63;2.57;;;;;;;4.76;100.00;99436.59;4960842;28;20233;-51
2022/09/21 04:39:44;;;;;;;8.80;2.87;;;;;;;4.80;100.00;99435.50;4958350;28;20226;-53
2022/09/21 04:42:12;;;;;;;4.90;2.40;;;;;;;4.73;100.00;99431.63;4957183;28;20574;-52
2022/09/21 04:44:40;;;;;;;9.03;2.93;;;;;;;4.77;100.00;99432.28;4956906;28;20242;-52
2022/09/21 04:47:06;;;;;;;5.40;2.70;;;;;;;4.78;100.00;99432.19;4948960;28;20455;-53
2022/09/21 04:49:33;;;;;;;5.00;2.57;;;;;;;4.83;100.00;99440.50;4955296;28;20237;-54
2022/09/21 04:52:00;;;;;;;6.60;2.60;;;;;;;4.90;100.00;99440.94;4954615;28;20227;-54
2022/09/21 04:54:27;;;;;;;8.13;2.80;;;;;;;4.93;100.00;99434.75;4956636;28;20245;-52
2022/09/21 04:56:53;;;;;;;7.47;2.90;;;;;;;4.87;100.00;99439.38;4956107;28;20230;-54
2022/09/21 04:59:20;;;;;;;7.60;2.90;;;;;;;4.90;100.00;99432.34;4959841;28;20244;-54
2022/09/21 05:01:48;;;;;;;7.63;2.77;;;;;;;4.91;100.00;99440.00;4953929;28;20246;-54
2022/09/21 05:04:15;;;;;;;5.27;2.40;;;;;;;4.95;100.00;99438.06;4955234;28;20650;-54
2022/09/21 05:06:42;;;;;;;5.37;2.50;;;;;;;4.86;100.00;99436.88;4958743;28;20222;-52
2022/09/21 05:11:50;;;;;;;6.40;2.43;;;;;;;4.87;100.00;99441.97;4924599;28;20225;-53
2022/09/21 05:14:16;;;;;;;13.43;2.77;;;;;;;4.87;100.00;99434.19;4954244;28;20241;-53
2022/09/21 05:16:43;;;;;;;8.47;2.60;;;;;;;4.94;100.00;99437.22;4957946;28;20236;-54
2022/09/21 05:19:11;;;;;;;10.53;2.90;;;;;;;5.07;100.00;99444.22;4956210;28;20341;-52
2022/09/21 05:21:38;;;;;;;5.23;2.60;;;;;;;5.10;100.00;99449.22;4959571;28;20233;-53
2022/09/21 05:24:05;;;;;;;6.50;2.43;;;;;;;5.09;100.00;99457.91;4954579;28;20225;-52
2022/09/21 05:26:31;;;;;;;6.83;2.77;;;;;;;5.09;100.00;99451.00;4956385;28;20241;-55
2022/09/21 05:28:59;;;;;;;6.40;3.23;;;;;;;5.11;100.00;99461.22;4952615;28;20276;-55
2022/09/21 05:31:32;;;;;;;11.00;4.57;;;;;;;5.08;100.00;99459.69;4959017;28;20234;-56
2022/09/21 05:34:06;;;;;;;17.87;11.50;;;;;;;5.08;100.00;99451.91;4953737;28;20249;-55
2022/09/21 05:36:45;;;;;;;9.53;5.70;;;;;;;5.06;100.00;99460.69;4957581;28;20324;-52
2022/09/21 05:39:12;;;;;;;12.47;4.00;;;;;;;5.10;100.00;99459.56;4954369;28;20320;-52
2022/09/21 05:41:39;;;;;;;6.90;3.50;;;;;;;5.07;100.00;99454.59;4955642;28;20304;-53
2022/09/21 05:44:07;;;;;;;7.93;3.57;;;;;;;5.04;100.00;99453.03;4953749;28;20914;-53
2022/09/21 05:46:39;;;;;;;5.53;3.50;;;;;;;5.07;100.00;99458.03;4957698;28;20593;-53
2022/09/21 05:49:14;;;;;;;8.27;3.97;;;;;;;5.14;100.00;99463.63;4954038;28;20233;-51
2022/09/21 05:51:54;;;;;;;13.43;4.60;;;;;;;5.19;100.00;99463.38;4955936;28;20340;-54
2022/09/21 05:54:26;;;;;;;6.10;3.23;;;;;;;5.24;100.00;99461.31;4953583;28;20256;-51
2022/09/21 05:56:58;;;;;;;3.93;2.43;;;;;;;5.28;100.00;99470.56;4953392;28;20250;-53
2022/09/21 05:59:47;;;;;;;8.73;2.57;;;;;;;5.25;100.00;99463.78;4956934;28;20226;-53
2022/09/21 06:02:22;;;;;;;7.90;2.70;;;;;;;5.27;100.00;99466.31;4952696;28;20243;-52
2022/09/21 06:04:52;;;;;;;6.70;2.77;;;;;;;5.27;100.00;99472.28;4952184;28;20609;-51
2022/09/21 06:07:21;;;;;;;7.53;3.17;;;;;;;5.31;100.00;99472.91;4955386;28;20325;-52
2022/09/21 06:09:47;;;;;;;5.93;3.40;;;;;;;5.33;100.00;99476.25;4954991;28;20285;-54
2022/09/21 06:12:14;;;;;;;19.97;9.50;;;;;;;5.37;100.00;99472.53;4956177;28;20240;-53
2022/09/21 06:14:40;;;;;;;17.47;8.03;;;;;;;5.34;100.00;99475.31;4958714;28;20238;-54
2022/09/21 06:17:07;;;;;;;12.80;5.47;;;;;;;5.40;100.00;99474.94;4955624;28;20665;-54
2022/09/21 06:19:34;;;;;;;9.50;5.00;;;;;;;5.41;100.00;99473.19;4960935;28;20263;-54
2022/09/21 06:22:00;;;;;;;8.80;4.47;;;;;;;5.45;100.00;99479.84;4953487;28;20230;-54
2022/09/21 06:24:28;;;;;;;9.70;3.60;;;;;;;5.47;100.00;99485.75;4957585;28;20242;-53
2022/09/21 06:26:55;;;;;;;14.30;4.53;;;;;;;5.51;100.00;99487.22;4954190;28;20269;-52
2022/09/21 06:29:40;;;;;;;9.57;4.27;;;;;;;5.53;100.00;99484.53;4955879;28;20247;-52
2022/09/21 06:32:07;;;;;;;10.00;4.33;;;;;;;5.55;100.00;99486.09;4959198;28;20238;-54
2022/09/21 06:34:34;;;;;;;7.37;3.63;;;;;;;5.56;100.00;99492.09;4962298;28;21073;-52
2022/09/21 06:37:01;;;;;;;6.77;3.00;;;;;;;5.53;100.00;99487.13;4959883;28;20245;-52
2022/09/21 06:39:28;;;;;;;8.70;3.10;;;;;;;5.60;100.00;99478.03;4957469;28;20788;-52
2022/09/21 06:41:56;;;;;;;9.60;2.83;;;;;;;5.64;100.00;99489.03;4956289;28;20234;-55
2022/09/21 06:44:23;;;;;;;4.97;3.30;;;;;;;5.66;100.00;99492.38;4963308;28;20237;-52
2022/09/21 06:46:49;;;;;;;7.83;3.73;;;;;;;5.68;100.00;99480.97;4953526;28;20239;-54
2022/09/21 06:49:16;;;;;;;6.27;3.10;;;;;;;5.74;100.00;99485.75;4958860;28;20266;-54
2022/09/21 06:51:43;;;;;;;6.50;2.80;;;;;;;5.78;100.00;99489.00;4959057;28;20305;-52
2022/09/21 06:54:10;;;;;;;9.90;3.10;;;;;;;5.81;100.00;99485.34;4955068;28;20244;-52
2022/09/21 06:56:38;;;;;;;7.47;2.63;;;;;;;5.87;100.00;99492.72;4958090;28;20280;-53
2022/09/21 06:59:04;;;;;;;6.87;2.67;;;;;;;5.87;100.00;99495.31;4959641;28;20233;-52
2022/09/21 07:01:31;;;;;;;5.50;2.90;;;;;;;5.93;100.00;99494.09;4957507;28;20242;-52
2022/09/21 07:03:58;;;;;;;10.57;3.27;;;;;;;6.01;100.00;99495.28;4957471;28;20246;-53
2022/09/21 07:06:24;;;;;;;5.83;3.10;;;;;;;6.04;100.00;99495.09;4960569;28;20748;-54
2022/09/21 07:08:52;;;;;;;4.63;2.43;;;;;;;6.10;100.00;99495.63;4959505;28;20741;-54
2022/09/21 07:11:19;;;;;;;6.73;2.83;;;;;;;6.14;100.00;99500.50;4962199;28;20238;-54
2022/09/21 07:13:47;;;;;;;7.33;3.03;;;;;;;6.20;100.00;99494.91;4958483;28;20246;-54
2022/09/21 07:16:14;;;;;;;9.43;2.40;;;;;;;6.29;100.00;99497.81;4958014;28;20233;-52
2022/09/21 07:18:42;;;;;;;7.37;2.70;;;;;;;6.29;100.00;99493.47;4958385;28;20233;-52
2022/09/21 07:21:10;;;;;;;5.47;2.63;;;;;;;6.44;100.00;99496.81;4954398;28;20250;-52
2022/09/21 07:23:37;;;;;;;4.77;2.47;;;;;;;6.54;100.00;99494.41;4960420;28;20280;-52
2022/09/21 07:26:06;;;;;;;8.33;2.93;;;;;;;6.68;100.00;99501.28;4953460;28;20867;-52
2022/09/21 07:28:32;;;;;;;8.30;2.67;;;;;;;6.81;100.00;99503.84;4956778;28;20230;-54
2022/09/21 07:31:06;;;;;;;8.13;2.80;;;;;;;6.98;100.00;99501.88;4955253;28;20222;-54
2022/09/21 07:33:33;;;;;;;6.83;2.33;;;;;;;7.13;100.00;99500.81;4959116;28;20230;-52
2022/09/21 07:36:00;;;;;;;17.87;10.80;;;;;;;7.37;100.00;99497.44;4952473;28;20240;-53
2022/09/21 07:38:27;;;;;;;13.43;7.40;;;;;;;7.53;100.00;99503.16;4959492;28;20922;-52
2022/09/21 07:40:54;;;;;;;14.93;5.73;;;;;;;7.72;100.00;99501.84;4952587;28;20265;-53
2022/09/21 07:43:20;;;;;;;8.90;5.27;;;;;;;7.81;100.00;99497.78;4962116;28;20229;-55
2022/09/21 07:45:53;;;;;;;16.40;8.03;;;;;;;7.89;99.97;99499.81;4955577;28;20733;-52
2022/09/21 07:48:22;;;;;;;13.17;7.13;;;;;;;8.02;100.00;99497.97;4961043;28;20241;-52
2022/09/21 07:50:49;;;;;;;9.20;5.67;;;;;;;8.10;98.21;99503.44;4955451;28;20230;-52
2022/09/21 07:53:16;;;;;;;16.63;8.70;;;;;;;8.23;98.70;99499.94;4957143;28;20250;-52
2022/09/21 07:55:43;;;;;;;13.17;6.50;;;;;;;8.29;97.39;99496.88;4958736;28;20227;-54
2022/09/21 08:00:53;;;;;;;13.13;6.67;;;;;;;8.53;97.00;99501.19;4953981;28;20242;-55
2022/09/21 08:03:22;;;;;;;10.20;6.47;;;;;;;8.55;97.53;99499.28;4960643;28;20242;-52
2022/09/21 08:05:48;;;;;;;12.60;6.83;;;;;;;8.67;97.47;99497.56;4956674;28;20297;-55
2022/09/21 08:08:15;;;;;;;12.37;5.67;;;;;;;8.75;96.45;99508.22;4956417;28;20638;-55
2022/09/21 08:10:42;;;;;;;9.97;5.77;;;;;;;8.81;96.06;99509.50;4958311;28;20226;-55
2022/09/21 08:13:09;;;;;;;10.93;5.43;;;;;;;8.93;95.70;99502.53;4958261;28;20247;-55
2022/09/21 08:15:35;;;;;;;8.07;5.47;;;;;;;9.05;95.43;99501.56;4958283;28;20325;-55
2022/09/21 08:18:06;;;;;;;17.33;5.63;;;;;;;9.07;93.69;99506.66;4958166;28;20236;-53
2022/09/21 08:20:34;;;;;;;9.20;5.37;;;;;;;9.17;94.61;99499.78;4955355;28;20257;-55
2022/09/21 08:23:01;;;;;;;15.63;5.57;;;;;;;9.28;94.42;99501.53;4956785;28;20265;-54
2022/09/21 08:25:29;;;;;;;11.20;5.73;;;;;;;9.39;93.85;99500.72;4955871;28;20242;-53
2022/09/21 08:27:59;;;;;;;13.93;6.10;;;;;;;9.49;93.69;99501.63;4954935;28;20236;-55
2022/09/21 08:30:27;;;;;;;10.07;5.20;;;;;;;9.57;93.93;99498.41;4956877;28;20232;-55
2022/09/21 08:32:54;;;;;;;7.13;4.90;;;;;;;9.69;93.57;99494.81;4952076;28;20297;-53
2022/09/21 08:35:22;;;;;;;9.87;5.07;;;;;;;9.78;93.60;99495.84;4955836;28;20325;-54
2022/09/21 08:37:53;;;;;;;7.50;4.57;;;;;;;9.91;93.77;99500.91;4956499;28;20707;-52
2022/09/21 08:40:20;;;;;;;11.73;5.10;;;;;;;10.02;91.23;99505.25;4960276;28;20796;-53
2022/09/21 08:42:56;;;;;;;8.73;4.30;;;;;;;10.15;92.23;99508.50;4956923;28;20267;-55
2022/09/21 08:45:26;;;;;;;11.17;4.60;;;;;;;10.28;91.12;99502.28;4954388;28;20238;-52
2022/09/21 08:47:58;;;;;;;7.67;4.10;;;;;;;10.39;91.04;99507.47;4953129;28;20307;-52
2022/09/21 08:50:33;;;;;;;8.83;4.57;;;;;;;10.53;88.97;99497.66;4958560;28;20250;-52
2022/09/21 08:53:09;;;;;;;8.37;4.50;;;;;;;10.61;89.22;99505.63;4953942;28;20235;-55
2022/09/21 08:55:36;;;;;;;7.87;4.07;;;;;;;10.71;89.03;99509.13;4959929;28;20279;-53
2022/09/21 08:58:03;;;;;;;9.33;3.70;;;;;;;10.81;88.06;99501.34;4955213;28;20598;-54
2022/09/21 09:00:36;;;;;;;8.83;3.80;;;;;;;10.97;88.84;99498.25;4955982;28;20231;-52
2022/09/21 09:03:44;;;;;;;6.83;3.70;;;;;;;11.12;90.28;99495.28;4954587;28;20831;-55
2022/09/21 09:06:22;;;;;;;14.67;4.03;;;;;;;11.17;85.36;99495.69;4914336;28;20244;-54
2022/09/21 09:09:05;;;;;;;4.63;3.17;;;;;;;11.35;85.84;99495.88;4955490;28;20260;-53
2022/09/21 09:11:47;;;;;;;5.87;3.67;;;;;;;11.49;86.75;99494.69;4955824;28;20228;-53
2022/09/21 09:14:29;;;;;;;9.10;3.70;;;;;;;11.62;86.35;99486.56;4952488;28;20250;-52
2022/09/21 09:17:18;;;;;;;8.87;3.43;;;;;;;11.68;85.69;99486.03;4953630;28;20236;-52
2022/09/21 09:19:54;;;;;;;6.23;2.70;;;;;;;11.75;81.38;99486.28;4955087;28;20282;-55
2022/09/21 09:22:29;;;;;;;6.63;3.03;;;;;;;11.90;81.20;99487.53;4954483;28;20271;-54
2022/09/21 09:25:02;;;;;;;5.87;2.80;;;;;;;12.04;79.36;99481.09;4951366;28;20230;-53
2022/09/21 09:27:33;;;;;;;6.70;2.80;;;;;;;12.16;79.26;99473.09;4955637;28;20357;-53
2022/09/21 09:30:04;;;;;;;7.10;2.73;;;;;;;12.26;80.27;99484.34;4951154;28;20695;-52
2022/09/21 09:32:38;;;;;;;5.47;2.33;;;;;;;12.39;78.25;99473.59;4957192;28;20294;-55
2022/09/21 09:35:15;;;;;;;7.37;2.30;;;;;;;12.51;77.45;99471.63;4953905;28;20231;-53
2022/09/21 09:37:44;;;;;;;4.67;1.90;;;;;;;12.70;74.82;99473.38;4957034;28;20238;-53
2022/09/21 09:40:14;;;;;;;3.40;2.27;;;;;;;12.90;69.45;99468.03;4957389;28;20271;-54
2022/09/21 09:42:56;;;;;;;2.23;1.20;;;;;;;13.31;61.80;99468.50;4962233;28;20249;-52
2022/09/21 09:45:43;;;;;;;2.70;1.50;;;;;;;13.40;61.80;99475.50;4952563;28;20240;-52
2022/09/21 09:48:25;;;;;;;3.60;1.30;;;;;;;13.37;60.74;99477.56;4955103;28;20252;-53
2022/09/21 09:50:52;;;;;;;4.17;1.20;;;;;;;13.24;61.19;99475.31;4953540;28;20295;-55
2022/09/21 09:53:22;;;;;;;4.30;1.37;;;;;;;13.29;62.29;99467.81;4956874;28;20269;-55
2022/09/21 09:55:51;;;;;;;6.43;1.57;;;;;;;13.41;60.10;99469.31;4950876;28;20269;-54
2022/09/21 09:58:20;;;;;;;3.87;1.30;;;;;;;13.61;58.80;99465.69;4957384;28;20229;-53
2022/09/21 10:00:50;;;;;;;4.70;1.40;;;;;;;13.90;59.12;99465.47;4957519;28;20236;-53
2022/09/21 10:03:19;;;;;;;4.67;1.80;;;;;;;13.91;59.47;99461.84;4955274;28;20233;-53
2022/09/21 10:05:46;;;;;;;2.23;1.10;;;;;;;14.05;57.86;99462.28;4960684;28;20233;-55
2022/09/21 10:08:42;;;;;;;4.30;1.57;;;;;;;14.16;56.62;99448.91;4954806;28;20232;-54
2022/09/21 10:11:12;;;;;;;3.60;1.40;;;;;;;14.15;57.13;99461.25;4954643;28;20799;-52
2022/09/21 10:13:41;;;;;;;2.90;1.23;;;;;;;14.29;56.25;99454.59;4958296;28;20285;-53
2022/09/21 10:16:13;;;;;;;5.17;1.40;;;;;;;14.39;55.11;99457.09;4957470;28;20249;-52
2022/09/21 10:18:46;;;;;;;2.73;1.47;;;;;;;14.29;55.69;99457.22;4960926;28;20756;-55
2022/09/21 10:21:19;;;;;;;3.00;1.23;;;;;;;14.46;54.68;99447.63;4956026;28;20241;-53
2022/09/21 10:23:49;;;;;;;4.30;1.37;;;;;;;14.60;55.18;99450.66;4962726;28;20601;-52
2022/09/21 10:26:19;;;;;;;3.70;1.20;;;;;;;14.80;55.61;99442.56;4958730;28;20237;-55
2022/09/21 10:28:58;;;;;;;2.83;1.30;;;;;;;14.93;53.28;99439.47;4959442;28;20230;-54
2022/09/21 10:31:26;;;;;;;5.47;1.50;;;;;;;15.06;54.84;99439.84;4956311;28;20335;-54
2022/09/21 10:34:04;;;;;;;3.27;1.63;;;;;;;15.08;52.67;99442.34;4956712;28;20296;-53
2022/09/21 10:36:33;;;;;;;2.57;1.10;;;;;;;14.82;52.52;99436.19;4953385;28;20702;-53
2022/09/21 10:39:19;;;;;;;4.37;1.87;;;;;;;14.46;52.14;99438.94;4953775;28;20686;-55
2022/09/21 10:41:52;;;;;;;1.90;1.10;;;;;;;14.35;52.98;99428.69;4959952;28;20258;-54
2022/09/21 10:44:22;;;;;;;2.67;1.20;;;;;;;14.26;52.68;99425.22;4957205;28;20230;-54
2022/09/21 10:46:50;;;;;;;4.05;1.13;;;;;;;14.39;52.38;99432.66;4955433;28;20525;-56
2022/09/21 10:49:21;;;;;;;3.77;1.00;;;;;;;14.37;52.35;99426.72;4960483;28;20234;-56
2022/09/21 10:51:50;;;;;;;2.90;1.03;;;;;;;14.66;50.93;99428.19;4957781;28;20261;-56
2022/09/21 10:54:23;;;;;;;1.93;0.90;;;;;;;14.67;51.19;99432.47;4960134;28;20313;-53
2022/09/21 10:56:54;;;;;;;3.57;1.03;;;;;;;14.85;51.08;99419.25;4958091;28;20324;-55
2022/09/21 10:59:24;;;;;;;2.10;1.20;;;;;;;14.94;50.94;99417.47;4965548;28;20245;-53
2022/09/21 11:01:52;;;;;;;2.30;0.80;;;;;;;14.89;49.95;99417.97;4958704;28;20566;-55
2022/09/21 11:04:30;;;;;;;3.20;1.10;;;;;;;14.95;49.76;99413.84;4961960;28;20238;-52
2022/09/21 11:07:05;;;;;;;3.43;1.00;;;;;;;14.86;48.33;99419.09;4955675;28;20312;-56
2022/09/21 11:09:37;;;;;;;1.30;0.80;;;;;;;14.89;48.65;99417.97;4959713;28;20251;-56
2022/09/21 11:12:16;;;;;;;1.73;0.70;;;;;;;14.99;47.48;99415.19;4956895;28;20236;-55
2022/09/21 11:14:49;;;;;;;2.33;1.20;;;;;;;15.14;46.54;99418.03;4959057;28;20233;-53
2022/09/21 11:17:24;;;;;;;3.20;1.00;;;;;;;15.24;46.43;99416.09;4956654;28;20239;-52
2022/09/21 11:19:57;;;;;;;5.70;0.93;;;;;;;15.40;46.84;99420.53;4956699;28;20607;-53
2022/09/21 11:22:32;;;;;;;4.80;0.90;;;;;;;15.49;46.63;99414.31;4958061;28;20231;-55
2022/09/21 11:25:07;;;;;;;2.27;0.80;;;;;;;15.60;46.99;99402.63;4955866;28;20294;-53
2022/09/21 11:27:40;;;;;;;3.87;1.07;;;;;;;15.76;45.91;99404.44;4958232;28;20511;-53
2022/09/21 11:30:11;;;;;;;2.83;0.87;;;;;;;15.83;45.43;99406.41;4958681;28;20321;-53
2022/09/21 11:33:03;;;;;;;2.63;0.90;;;;;;;15.83;44.35;99398.53;4959557;28;20235;-52
2022/09/21 11:35:51;;;;;;;1.27;0.90;;;;;;;15.47;44.57;99394.38;4958937;28;20237;-53
2022/09/21 11:38:28;;;;;;;1.60;0.80;;;;;;;15.33;46.09;99388.81;4952587;28;20242;-55
2022/09/21 11:41:08;;;;;;;2.93;0.70;;;;;;;15.09;46.15;99381.69;4955348;28;20223;-52
2022/09/21 11:43:51;;;;;;;1.77;0.77;;;;;;;15.18;45.15;99375.47;4959232;28;20254;-53
2022/09/21 11:46:29;;;;;;;3.83;1.03;;;;;;;15.40;45.92;99374.97;4956704;28;20236;-52
2022/09/21 11:49:26;;;;;;;1.80;0.93;;;;;;;15.41;45.99;99376.63;4958177;28;20263;-54
2022/09/21 11:52:11;;;;;;;1.80;0.90;;;;;;;15.37;44.72;99370.88;4955079;28;20247;-55
2022/09/21 11:55:07;;;;;;;2.77;0.80;;;;;;;15.48;45.77;99370.56;4958631;28;20728;-55
2022/09/21 11:57:40;;;;;;;5.97;1.00;;;;;;;15.45;45.44;99370.88;4954302;28;20594;-55